Terminal Aerodrome Forecast
Issued by NWS

Home | Current Version | Previous Version | Text Only | Print | Product List | Glossary Off
Versions: 1 2 3 4 5 6 7 8 9 10 11 12 13 14 15 16 17 18 19 20 21 22 23 24 25 26 27 28

000
FTUS43 KLOT 260520
TAFORD
TAF
KORD 260520Z 2606/2712 VRB03KT P6SM FEW050 SCT120 BKN150
     FM261300 12008KT P6SM SCT100 BKN150
     FM262000 08012KT P6SM SCT035 BKN060 PROB30 2621/2624 4SM -TSRA
      SCT020 OVC035CB
     FM270000 07010KT P6SM VCSH SCT010 BKN020
     FM270300 02008KT P6SM SCT020 BKN030=

USA.gov is the U.S. government's official web portal to all federal, state and local government web resources and services.